This is the latest recevied weather packets stored in our database for station/object IQ1GE. If no packets are shown the sender has not sent any weather packets the latest 10 day(s).
| Time | Temp. | Humidity | Pressure | Rain* | Wind** | Luminosity | Snow |
|---|---|---|---|---|---|---|---|
| 1778255077 | 22.78° C | 58% | 1015.3 hPa | 0 mm | - | - | - |
| 1778254470 | 22.78° C | 59% | 1015.3 hPa | 0 mm | - | - | - |
| 1778253870 | 22.78° C | 60% | 1015.3 hPa | 0 mm | - | - | - |
| 1778253270 | 22.78° C | 61% | 1015.3 hPa | 0 mm | - | - | - |
| 1778252971 | 22.78° C | 60% | 1015.3 hPa | 0 mm | - | - | - |
| 1778252070 | 22.78° C | 59% | 1015.4 hPa | 0 mm | - | - | - |
| 1778251774 | 22.78° C | 61% | 1015.6 hPa | 0 mm | - | - | - |
| 1778246071 | 20° C | 68% | 1016.2 hPa | 0 mm | - | - | - |
| 1778245771 | 20° C | 68% | 1016.2 hPa | 0 mm | - | - | - |
| 1778244574 | 19.44° C | 68% | 1016.3 hPa | 0 mm | - | - | - |
| 1778244271 | 20° C | 67% | 1016.2 hPa | 0 mm | - | - | - |
| 1778243971 | 20° C | 67% | 1016.3 hPa | 0 mm | - | - | - |
| 1778242171 | 20.56° C | 65% | 1016.2 hPa | 0 mm | - | - | - |
| 1778241577 | 20.56° C | 65% | 1016.2 hPa | 0 mm | - | - | - |
| 1778240971 | 20.56° C | 65% | 1016.1 hPa | 0 mm | - | - | - |
| 1778238580 | 21.11° C | 63% | 1016 hPa | 0 mm | - | - | - |
| 1778237671 | 21.11° C | 62% | 1016 hPa | 0 mm | - | - | - |
| 1778236474 | 21.11° C | 60% | 1016 hPa | 0 mm | - | - | - |
| 1778235571 | 21.11° C | 59% | 1015.9 hPa | 0 mm | - | - | - |
| 1778235274 | 21.11° C | 59% | 1015.9 hPa | 0 mm | - | - | - |
| 1778234377 | 21.11° C | 60% | 1015.8 hPa | 0 mm | - | - | - |
| 1778231071 | 20.56° C | 61% | 1015.5 hPa | 0 mm | - | - | - |
| 1778230774 | 20.56° C | 61% | 1015.5 hPa | 0 mm | - | - | - |
| 1778230477 | 20.56° C | 61% | 1015.5 hPa | 0 mm | - | - | - |
| 1778229871 | 20.56° C | 60% | 1015.5 hPa | 0 mm | - | - | - |
* Rain latest hour (hover to see other rain measurements)
** Current wind speed in m/s (hover to see current wind gust speed)